Stations météo

Publicité
Leuchtturm Kiel, Allemagne (10044): Température de l'air & dewpoint: 16.09.2018 17:00:00 - 22.09.2018 17:00:00 (CEST)Leuchtturm Kiel, Allemagne (10044): Vitesse du vent & gusts: 16.09.2018 17:00:00 - 22.09.2018 17:00:00 (CEST)Leuchtturm Kiel, Allemagne (10044): Direction du vent: 16.09.2018 17:00:00 - 22.09.2018 17:00:00 (CEST)Leuchtturm Kiel, Allemagne (10044): reduced air pressure: 16.09.2018 17:00:00 - 22.09.2018 17:00:00 (CEST)Leuchtturm Kiel, Allemagne (10044): Ensoleillement: 16.09.2018 17:00:00 - 22.09.2018 17:00:00 (CEST)
Date & Time tt [°C] td [°C] ff [km/h] ff [knt] fx [km/h] fx [knt] dd ppp [hPa] sd [min]
22.09.2018 17:00:00 14,5 5,2 49 27 63 34 WSW 1012,0 52
22.09.2018 16:00:00 14,6 7,4 44 24 72 39 WSW 1012,4 38
22.09.2018 15:00:00 14,5 5,7 59 32 82 45 W 1011,8 37
22.09.2018 14:00:00 15,1 4,8 59 32 77 42 W 1011,4 42
22.09.2018 13:00:00 13,2 8,8 49 26 80 43 WSW 1011,8 23
22.09.2018 12:00:00 12,7 9,8 60 32 72 39 SW 1011,9 43
22.09.2018 11:00:00 12,2 9,9 40 22 63 34 WSW 1012,3 19
22.09.2018 10:00:00 12,3 8,6 44 24 60 33 SW 1011,8 50
22.09.2018 09:00:00 11,8 8,8 47 26 55 30 SW 1011,5 60
22.09.2018 08:00:00 11,1 8,4 41 22 50 27 SW 1011,1 17
22.09.2018 07:00:00 11,2 8,5 37 20 51 28 SW 1010,7 0
22.09.2018 06:00:00 11,0 9,5 44 24 53 29 SW 1010,0 0
22.09.2018 05:00:00 11,1 9,1 43 23 64 35 SW 1009,2 0
22.09.2018 04:00:00 10,9 9,3 56 30 74 40 SW 1008,4 0
22.09.2018 03:00:00 10,3 8,7 51 28 79 42 SW 1007,6 0
22.09.2018 02:00:00 10,1 8,0 64 35 77 41 SW 1006,8 0
22.09.2018 01:00:00 10,6 8,1 62 33 82 45 SW 1006,4 0
22.09.2018 00:00:00 10,7 7,7 63 34 92 50 SW 1005,9 0
21.09.2018 23:00:00 11,0 6,9 72 39 85 46 SW 1004,9 0
21.09.2018 22:00:00 11,2 6,5 62 34 93 50 SW 1004,4 0
21.09.2018 21:00:00 12,0 5,8 80 43 96 52 WSW 1003,8 0
21.09.2018 20:00:00 11,9 7,1 51 28 91 49 WSW 1003,6 0
21.09.2018 19:00:00 11,7 7,0 74 40 100 54 WSW 1002,7 20
21.09.2018 18:00:00 12,3 8,2 68 37 96 52 WSW 1002,2 17
21.09.2018 17:00:00 14,0 8,6 58 31 81 44 W 1001,4 11
21.09.2018 16:00:00 15,3 8,5 53 29 80 43 WSW 1000,9 0
21.09.2018 15:00:00 15,3 10,8 47 26 69 38 WSW 1000,7 0
21.09.2018 14:00:00 15,4 11,9 53 29 69 37 WSW 1000,0 0
21.09.2018 13:00:00 15,5 12,4 66 35 92 50 WSW 998,7 0
21.09.2018 12:00:00 21,1 13,1 74 40 94 51 SW 997,0 5
21.09.2018 11:00:00 22,1 12,2 65 35 86 46 SSW 996,5 0
21.09.2018 10:00:00 21,4 12,7 67 36 81 44 SSW 997,3 17
21.09.2018 09:00:00 19,7 12,0 55 30 66 36 S 998,3 19
21.09.2018 08:00:00 19,5 11,6 51 28 61 33 S 999,6 19
21.09.2018 07:00:00 19,2 11,8 48 26 58 31 S 1001,0 0
21.09.2018 06:00:00 18,8 11,3 44 24 49 27 S 1002,5 0
21.09.2018 05:00:00 18,7 11,6 40 22 46 25 S 1003,9 0
21.09.2018 04:00:00 18,6 11,8 35 19 40 21 S 1005,0 0
21.09.2018 03:00:00 19,0 12,1 36 20 44 24 S 1005,9 0
21.09.2018 02:00:00 19,2 12,2 35 19 40 21 S 1007,1 0
21.09.2018 01:00:00 18,4 12,9 26 14 32 17 S 1008,2 0
21.09.2018 00:00:00 19,1 12,7 27 14 30 16 S 1009,1 0
20.09.2018 23:00:00 19,6 13,1 25 13 26 14 S 1010,1 0
20.09.2018 22:00:00 20,3 13,5 23 13 27 14 S 1010,8 0
20.09.2018 21:00:00 20,8 13,9 22 12 28 15 SW 1011,3 0
20.09.2018 20:00:00 21,2 14,1 27 15 31 17 SW 1011,5 0
20.09.2018 19:00:00 21,5 13,9 29 16 38 20 SW 1011,8 0
20.09.2018 18:00:00 21,7 14,1 31 17 43 23 SW 1012,0 0
20.09.2018 17:00:00 21,7 13,9 33 18 45 24 SW 1012,2 13
20.09.2018 16:00:00 21,4 13,8 31 17 56 30 WSW 1012,7 12
20.09.2018 15:00:00 20,5 13,8 44 24 63 34 SW 1013,1 0
20.09.2018 14:00:00 20,1 13,6 42 23 60 33 SW 1013,2 14
20.09.2018 13:00:00 20,1 14,0 45 25 54 29 SW 1013,3 50
20.09.2018 12:00:00 19,2 14,2 45 24 56 30 SW 1013,7 38
20.09.2018 11:00:00 19,0 14,0 48 26 59 32 SW 1014,0 56
20.09.2018 10:00:00 18,0 13,9 40 22 48 26 SSW 1013,8 46
20.09.2018 09:00:00 17,5 13,7 40 22 46 25 SSW 1013,8 8
20.09.2018 08:00:00 17,2 13,8 33 18 44 24 SW 1014,0 10
20.09.2018 07:00:00 17,7 14,0 39 21 45 25 SW 1013,9 0
20.09.2018 06:00:00 17,9 13,7 39 21 44 24 SW 1013,8 0
20.09.2018 05:00:00 18,1 13,5 36 20 53 28 SW 1013,8 0
20.09.2018 04:00:00 18,5 13,3 41 22 50 27 SW 1013,7 0
20.09.2018 03:00:00 18,8 13,5 41 22 55 30 SW 1013,5 0
20.09.2018 02:00:00 19,2 13,4 39 21 62 33 SW 1013,8 0
20.09.2018 01:00:00 19,8 12,8 37 20 59 32 SW 1013,6 0
20.09.2018 00:00:00 20,2 13,0 44 24 48 26 SW 1013,9 0
19.09.2018 23:00:00 19,5 14,2 37 20 41 22 SW 1014,3 0
19.09.2018 22:00:00 19,7 14,7 29 16 34 18 SW 1014,3 0
19.09.2018 21:00:00 19,9 14,7 26 14 34 19 SW 1014,0 0
19.09.2018 20:00:00 20,6 15,1 32 17 46 25 W 1013,7 0
19.09.2018 19:00:00 24,0 13,6 39 21 52 28 SW 1012,9 6
19.09.2018 18:00:00 23,5 13,5 47 25 53 28 SSW 1012,7 48
19.09.2018 17:00:00 23,7 12,6 45 24 57 31 SSW 1012,7 59
19.09.2018 16:00:00 22,6 13,5 41 22 46 25 SSW 1013,6 47
19.09.2018 15:00:00 21,8 14,0 40 21 50 27 SSW 1014,2 50
19.09.2018 14:00:00 21,4 13,7 34 19 41 22 SSW 1014,5 46
19.09.2018 13:00:00 20,4 13,6 37 20 47 26 SW 1015,0 60
19.09.2018 12:00:00 19,2 14,0 34 18 41 22 SSW 1015,4 58
19.09.2018 11:00:00 17,7 14,0 38 21 47 25 SW 1015,2 60
19.09.2018 10:00:00 16,5 14,0 34 18 43 23 SSW 1014,6 47
19.09.2018 09:00:00 15,7 13,9 35 19 42 23 SSW 1014,6 26
19.09.2018 08:00:00 15,7 14,1 35 19 41 22 SW 1014,9 3
19.09.2018 07:00:00 15,6 13,8 36 19 41 22 SW 1014,8 0
19.09.2018 06:00:00 15,8 13,7 36 19 43 23 SW 1014,5 0
19.09.2018 05:00:00 16,1 13,7 37 20 42 23 SW 1014,3 0
19.09.2018 04:00:00 16,4 14,0 36 19 42 23 SW 1013,9 0
19.09.2018 03:00:00 16,6 14,2 33 18 39 21 SW 1013,5 0
19.09.2018 02:00:00 17,1 14,1 31 17 37 20 SW 1013,2 0
19.09.2018 01:00:00 17,4 14,3 30 16 38 21 WSW 1012,9 0
19.09.2018 00:00:00 18,0 14,2 32 17 49 26 WSW 1012,7 0
18.09.2018 23:00:00 18,5 14,0 35 19 43 23 W 1012,4 0
18.09.2018 22:00:00 18,4 15,0 19 10 37 20 W 1012,4 0
18.09.2018 21:00:00 19,0 15,2 21 11 42 23 W 1011,6 0
18.09.2018 20:00:00 20,0 15,2 44 24 55 30 WNW 1010,7 0
18.09.2018 19:00:00 22,2 14,8 51 27 60 33 W 1009,5 60
18.09.2018 18:00:00 27,9 11,5 37 20 48 26 SSW 1008,6 60
18.09.2018 17:00:00 28,3 10,9 44 24 51 27 SSW 1008,6 60
18.09.2018 16:00:00 27,7 11,1 43 23 49 27 SSW 1009,0 60
18.09.2018 15:00:00 27,0 11,1 42 23 49 27 S 1009,6 60
18.09.2018 14:00:00 25,6 11,1 38 21 45 24 S 1010,2 60
18.09.2018 13:00:00 23,8 11,1 33 18 37 20 S 1010,9 60
18.09.2018 12:00:00 22,1 10,8 24 13 32 18 S 1011,5 60
18.09.2018 11:00:00 20,4 9,7 26 14 31 17 S 1012,0 60
18.09.2018 10:00:00 18,7 10,5 25 13 32 17 S 1012,4 60
18.09.2018 09:00:00 17,5 9,3 31 17 36 19 S 1012,5 60
18.09.2018 08:00:00 16,8 9,7 29 16 34 18 S 1012,6 28
18.09.2018 07:00:00 17,0 9,7 29 16 35 19 S 1012,8 0
18.09.2018 06:00:00 16,8 9,4 26 14 31 17 S 1013,3 0
18.09.2018 05:00:00 16,5 10,6 19 10 28 15 S 1013,9 0
18.09.2018 04:00:00 16,7 10,0 21 11 25 13 S 1014,3 0
18.09.2018 03:00:00 16,9 10,8 21 12 24 13 S 1014,7 0
18.09.2018 02:00:00 17,3 10,9 21 11 24 13 S 1015,1 0
18.09.2018 01:00:00 18,0 12,1 21 12 27 15 SSE 1015,5 0
18.09.2018 00:00:00 18,7 11,6 23 12 24 13 SE 1015,9 0
17.09.2018 23:00:00 19,1 11,6 11 6 14 7 SE 1016,4 0
17.09.2018 22:00:00 19,1 11,8 6 3 7 4 S 1016,7 0
17.09.2018 21:00:00 19,3 11,9 7 4 11 6 WSW 1016,9 0
17.09.2018 20:00:00 19,9 11,5 11 6 23 12 W 1016,8 0
17.09.2018 19:00:00 20,8 10,9 22 12 25 14 SW 1016,6 42
17.09.2018 18:00:00 21,3 9,7 23 13 34 18 WSW 1016,6 58
17.09.2018 17:00:00 21,5 8,3 29 16 35 19 SW 1016,7 60
17.09.2018 16:00:00 21,6 11,4 29 16 35 19 WSW 1017,1 60
17.09.2018 15:00:00 20,6 12,1 32 18 44 24 SW 1017,4 60
17.09.2018 14:00:00 20,2 11,3 38 20 45 24 SW 1017,3 60
17.09.2018 13:00:00 19,3 12,0 39 21 46 25 SW 1017,4 60
17.09.2018 12:00:00 18,6 12,2 36 19 40 22 SW 1017,9 60
17.09.2018 11:00:00 17,3 11,4 33 18 39 21 SW 1017,9 59
17.09.2018 10:00:00 15,6 10,6 25 14 34 18 SW 1017,9 50
17.09.2018 09:00:00 15,2 10,7 27 15 39 21 SW 1017,7 16
17.09.2018 08:00:00 14,8 10,1 34 18 39 21 SSW 1017,1 0
17.09.2018 07:00:00 15,2 10,5 35 19 42 23 SW 1017,0 0
17.09.2018 06:00:00 15,5 10,8 35 19 39 21 SSW 1017,1 0
17.09.2018 05:00:00 15,7 10,6 25 14 39 21 SW 1017,3 0
17.09.2018 04:00:00 15,8 11,3 32 17 39 21 SSW 1016,6 0
17.09.2018 03:00:00 16,3 10,9 32 17 42 23 SSW 1017,3 0
17.09.2018 02:00:00 16,6 11,0 37 20 41 22 SSW 1017,4 0
17.09.2018 01:00:00 16,8 11,2 31 17 36 19 SW 1017,9 0
17.09.2018 00:00:00 17,2 11,3 32 17 35 19 SSW 1018,1 0
16.09.2018 23:00:00 17,3 11,5 27 15 29 16 SSW 1018,4 0
16.09.2018 22:00:00 17,3 11,1 23 12 25 14 SSW 1018,7 0
16.09.2018 21:00:00 17,7 11,4 18 10 21 12 S 1018,8 0
16.09.2018 20:00:00 18,6 10,8 22 12 24 13 SW 1019,0 0
16.09.2018 19:00:00 18,9 10,7 23 12 42 23 SW 1018,7 0
16.09.2018 18:00:00 19,0 10,5 40 21 56 30 SW 1018,7 12
16.09.2018 17:00:00 19,1 10,6 47 25 55 30 SW 1019,1 57

tt = Température de l'air
td = dewpoint
ff = Vitesse du vent
fx = gusts
dd = Direction du vent
ppp = reduced air pressure
sd = Ensoleillement

stations d'obs. à proximité